sensor_id;sensor_type;location;lat;lon;timestamp;P1;durP1;ratioP1;P2;durP2;ratioP2
75614;SDS011;64199;48.578;-4.520;2022-11-20T00:00:52;2.55;;;0.60;;
75614;SDS011;64199;48.578;-4.520;2022-11-20T00:03:18;0.50;;;0.50;;
75614;SDS011;64199;48.578;-4.520;2022-11-20T00:05:44;1.00;;;0.43;;
75614;SDS011;64199;48.578;-4.520;2022-11-20T00:08:10;1.23;;;0.43;;
75614;SDS011;64199;48.578;-4.520;2022-11-20T00:10:36;0.40;;;0.40;;
75614;SDS011;64199;48.578;-4.520;2022-11-20T00:13:03;3.22;;;0.60;;
75614;SDS011;64199;48.578;-4.520;2022-11-20T00:15:29;1.08;;;0.55;;
75614;SDS011;64199;48.578;-4.520;2022-11-20T00:17:55;0.32;;;0.30;;
75614;SDS011;64199;48.578;-4.520;2022-11-20T00:20:20;0.80;;;0.50;;
75614;SDS011;64199;48.578;-4.520;2022-11-20T00:22:46;1.05;;;0.60;;
75614;SDS011;64199;48.578;-4.520;2022-11-20T00:25:13;1.50;;;0.50;;
75614;SDS011;64199;48.578;-4.520;2022-11-20T00:27:38;0.47;;;0.32;;
75614;SDS011;64199;48.578;-4.520;2022-11-20T00:30:05;2.15;;;0.32;;
75614;SDS011;64199;48.578;-4.520;2022-11-20T00:32:31;0.40;;;0.40;;
75614;SDS011;64199;48.578;-4.520;2022-11-20T00:34:57;0.38;;;0.38;;
75614;SDS011;64199;48.578;-4.520;2022-11-20T00:37:23;0.40;;;0.35;;
75614;SDS011;64199;48.578;-4.520;2022-11-20T00:39:48;3.45;;;0.50;;
75614;SDS011;64199;48.578;-4.520;2022-11-20T00:42:14;0.65;;;0.32;;
75614;SDS011;64199;48.578;-4.520;2022-11-20T00:44:40;0.40;;;0.40;;
75614;SDS011;64199;48.578;-4.520;2022-11-20T00:47:06;0.40;;;0.40;;
75614;SDS011;64199;48.578;-4.520;2022-11-20T00:49:31;0.50;;;0.50;;
75614;SDS011;64199;48.578;-4.520;2022-11-20T00:51:57;0.80;;;0.40;;
75614;SDS011;64199;48.578;-4.520;2022-11-20T00:54:23;0.95;;;0.52;;
75614;SDS011;64199;48.578;-4.520;2022-11-20T00:56:49;2.40;;;0.45;;
75614;SDS011;64199;48.578;-4.520;2022-11-20T00:59:15;0.45;;;0.30;;
75614;SDS011;64199;48.578;-4.520;2022-11-20T01:01:40;0.45;;;0.40;;
75614;SDS011;64199;48.578;-4.520;2022-11-20T01:04:06;0.40;;;0.30;;
75614;SDS011;64199;48.578;-4.520;2022-11-20T01:06:33;0.30;;;0.30;;
75614;SDS011;64199;48.578;-4.520;2022-11-20T01:11:30;0.80;;;0.40;;
75614;SDS011;64199;48.578;-4.520;2022-11-20T01:13:58;1.17;;;0.40;;
75614;SDS011;64199;48.578;-4.520;2022-11-20T01:16:25;0.43;;;0.43;;
75614;SDS011;64199;48.578;-4.520;2022-11-20T01:18:54;1.13;;;0.30;;
75614;SDS011;64199;48.578;-4.520;2022-11-20T01:21:30;0.20;;;0.20;;
75614;SDS011;64199;48.578;-4.520;2022-11-20T01:23:57;0.30;;;0.30;;
75614;SDS011;64199;48.578;-4.520;2022-11-20T01:26:24;0.30;;;0.30;;
75614;SDS011;64199;48.578;-4.520;2022-11-20T01:28:55;0.43;;;0.38;;
75614;SDS011;64199;48.578;-4.520;2022-11-20T01:31:23;0.38;;;0.30;;
75614;SDS011;64199;48.578;-4.520;2022-11-20T01:33:55;0.90;;;0.40;;
75614;SDS011;64199;48.578;-4.520;2022-11-20T01:38:56;0.20;;;0.20;;
75614;SDS011;64199;48.578;-4.520;2022-11-20T01:41:24;0.22;;;0.22;;
75614;SDS011;64199;48.578;-4.520;2022-11-20T01:44:11;0.75;;;0.40;;
75614;SDS011;64199;48.578;-4.520;2022-11-20T01:46:54;0.20;;;0.20;;
75614;SDS011;64199;48.578;-4.520;2022-11-20T01:49:34;0.25;;;0.22;;
75614;SDS011;64199;48.578;-4.520;2022-11-20T01:52:11;0.65;;;0.40;;
75614;SDS011;64199;48.578;-4.520;2022-11-20T01:54:44;0.38;;;0.35;;
75614;SDS011;64199;48.578;-4.520;2022-11-20T01:57:25;0.20;;;0.20;;
75614;SDS011;64199;48.578;-4.520;2022-11-20T01:59:57;0.65;;;0.30;;
75614;SDS011;64199;48.578;-4.520;2022-11-20T02:02:28;0.77;;;0.40;;
75614;SDS011;64199;48.578;-4.520;2022-11-20T02:04:54;0.55;;;0.30;;
75614;SDS011;64199;48.578;-4.520;2022-11-20T02:07:25;0.25;;;0.20;;
75614;SDS011;64199;48.578;-4.520;2022-11-20T02:09:51;2.40;;;0.30;;
75614;SDS011;64199;48.578;-4.520;2022-11-20T02:12:17;0.30;;;0.30;;
75614;SDS011;64199;48.578;-4.520;2022-11-20T02:15:01;0.98;;;0.40;;
75614;SDS011;64199;48.578;-4.520;2022-11-20T02:17:27;0.50;;;0.40;;
75614;SDS011;64199;48.578;-4.520;2022-11-20T02:19:54;1.65;;;0.22;;
75614;SDS011;64199;48.578;-4.520;2022-11-20T02:22:26;0.90;;;0.40;;
75614;SDS011;64199;48.578;-4.520;2022-11-20T02:24:58;1.00;;;0.30;;
75614;SDS011;64199;48.578;-4.520;2022-11-20T02:27:27;0.98;;;0.40;;
75614;SDS011;64199;48.578;-4.520;2022-11-20T02:29:57;0.52;;;0.30;;
75614;SDS011;64199;48.578;-4.520;2022-11-20T02:34:54;1.58;;;0.52;;
75614;SDS011;64199;48.578;-4.520;2022-11-20T02:37:20;0.80;;;0.30;;
75614;SDS011;64199;48.578;-4.520;2022-11-20T02:39:47;0.52;;;0.30;;
75614;SDS011;64199;48.578;-4.520;2022-11-20T02:42:16;0.30;;;0.30;;
75614;SDS011;64199;48.578;-4.520;2022-11-20T02:44:42;0.50;;;0.45;;
75614;SDS011;64199;48.578;-4.520;2022-11-20T02:47:08;0.50;;;0.40;;
75614;SDS011;64199;48.578;-4.520;2022-11-20T02:49:34;0.40;;;0.30;;
75614;SDS011;64199;48.578;-4.520;2022-11-20T02:52:00;0.52;;;0.40;;
75614;SDS011;64199;48.578;-4.520;2022-11-20T02:54:26;1.45;;;0.38;;
75614;SDS011;64199;48.578;-4.520;2022-11-20T02:56:51;0.35;;;0.28;;
75614;SDS011;64199;48.578;-4.520;2022-11-20T02:59:17;1.23;;;0.47;;
75614;SDS011;64199;48.578;-4.520;2022-11-20T03:01:43;0.73;;;0.43;;
75614;SDS011;64199;48.578;-4.520;2022-11-20T03:04:09;0.98;;;0.45;;
75614;SDS011;64199;48.578;-4.520;2022-11-20T03:06:35;0.77;;;0.40;;
75614;SDS011;64199;48.578;-4.520;2022-11-20T03:09:01;0.63;;;0.35;;
75614;SDS011;64199;48.578;-4.520;2022-11-20T03:11:27;2.53;;;0.50;;
75614;SDS011;64199;48.578;-4.520;2022-11-20T03:13:54;1.80;;;0.40;;
75614;SDS011;64199;48.578;-4.520;2022-11-20T03:16:20;0.95;;;0.38;;
75614;SDS011;64199;48.578;-4.520;2022-11-20T03:18:47;0.47;;;0.30;;
75614;SDS011;64199;48.578;-4.520;2022-11-20T03:21:14;1.10;;;0.60;;
75614;SDS011;64199;48.578;-4.520;2022-11-20T03:23:41;0.98;;;0.50;;
75614;SDS011;64199;48.578;-4.520;2022-11-20T03:28:42;1.38;;;0.57;;
75614;SDS011;64199;48.578;-4.520;2022-11-20T03:31:14;0.93;;;0.50;;
75614;SDS011;64199;48.578;-4.520;2022-11-20T03:33:42;1.30;;;0.47;;
75614;SDS011;64199;48.578;-4.520;2022-11-20T03:36:09;0.82;;;0.65;;
75614;SDS011;64199;48.578;-4.520;2022-11-20T03:38:37;0.63;;;0.35;;
75614;SDS011;64199;48.578;-4.520;2022-11-20T03:41:04;0.52;;;0.40;;
75614;SDS011;64199;48.578;-4.520;2022-11-20T03:43:33;2.17;;;0.60;;
75614;SDS011;64199;48.578;-4.520;2022-11-20T03:45:59;0.30;;;0.25;;
75614;SDS011;64199;48.578;-4.520;2022-11-20T03:48:25;2.45;;;0.60;;
75614;SDS011;64199;48.578;-4.520;2022-11-20T03:50:52;0.52;;;0.35;;
75614;SDS011;64199;48.578;-4.520;2022-11-20T03:53:19;1.23;;;0.50;;
75614;SDS011;64199;48.578;-4.520;2022-11-20T03:55:49;0.63;;;0.50;;
75614;SDS011;64199;48.578;-4.520;2022-11-20T03:58:16;2.33;;;0.40;;
75614;SDS011;64199;48.578;-4.520;2022-11-20T04:00:43;1.10;;;0.40;;
75614;SDS011;64199;48.578;-4.520;2022-11-20T04:03:09;0.80;;;0.47;;
75614;SDS011;64199;48.578;-4.520;2022-11-20T04:05:34;0.73;;;0.40;;
75614;SDS011;64199;48.578;-4.520;2022-11-20T04:08:00;1.70;;;0.70;;
75614;SDS011;64199;48.578;-4.520;2022-11-20T04:10:26;0.30;;;0.30;;
75614;SDS011;64199;48.578;-4.520;2022-11-20T04:12:52;1.33;;;0.52;;
75614;SDS011;64199;48.578;-4.520;2022-11-20T04:15:18;1.05;;;0.60;;
75614;SDS011;64199;48.578;-4.520;2022-11-20T04:17:44;2.28;;;0.47;;
75614;SDS011;64199;48.578;-4.520;2022-11-20T04:20:10;1.35;;;0.60;;
75614;SDS011;64199;48.578;-4.520;2022-11-20T04:22:36;2.05;;;0.63;;
75614;SDS011;64199;48.578;-4.520;2022-11-20T04:25:01;0.90;;;0.55;;
75614;SDS011;64199;48.578;-4.520;2022-11-20T04:27:27;2.03;;;0.60;;
75614;SDS011;64199;48.578;-4.520;2022-11-20T04:29:53;2.15;;;0.98;;
75614;SDS011;64199;48.578;-4.520;2022-11-20T04:32:19;2.10;;;1.05;;
75614;SDS011;64199;48.578;-4.520;2022-11-20T04:34:45;1.55;;;0.70;;
75614;SDS011;64199;48.578;-4.520;2022-11-20T04:37:10;3.03;;;1.00;;
75614;SDS011;64199;48.578;-4.520;2022-11-20T04:39:36;2.15;;;0.80;;
75614;SDS011;64199;48.578;-4.520;2022-11-20T04:42:02;2.65;;;0.80;;
75614;SDS011;64199;48.578;-4.520;2022-11-20T04:44:47;1.23;;;0.90;;
75614;SDS011;64199;48.578;-4.520;2022-11-20T04:47:12;1.23;;;0.70;;
75614;SDS011;64199;48.578;-4.520;2022-11-20T04:49:38;2.47;;;0.90;;
75614;SDS011;64199;48.578;-4.520;2022-11-20T04:52:04;2.97;;;1.02;;
75614;SDS011;64199;48.578;-4.520;2022-11-20T04:54:30;1.80;;;0.88;;
75614;SDS011;64199;48.578;-4.520;2022-11-20T04:56:55;1.92;;;0.80;;
75614;SDS011;64199;48.578;-4.520;2022-11-20T04:59:21;2.17;;;0.77;;
75614;SDS011;64199;48.578;-4.520;2022-11-20T05:01:47;3.22;;;1.13;;
75614;SDS011;64199;48.578;-4.520;2022-11-20T05:04:13;2.70;;;0.90;;
75614;SDS011;64199;48.578;-4.520;2022-11-20T05:06:39;1.40;;;0.70;;
75614;SDS011;64199;48.578;-4.520;2022-11-20T05:09:05;2.53;;;0.85;;
75614;SDS011;64199;48.578;-4.520;2022-11-20T05:11:31;2.55;;;0.98;;
75614;SDS011;64199;48.578;-4.520;2022-11-20T05:13:58;2.20;;;0.70;;
75614;SDS011;64199;48.578;-4.520;2022-11-20T05:16:25;1.53;;;0.70;;
75614;SDS011;64199;48.578;-4.520;2022-11-20T05:18:51;2.20;;;0.63;;
75614;SDS011;64199;48.578;-4.520;2022-11-20T05:21:18;1.35;;;0.70;;
75614;SDS011;64199;48.578;-4.520;2022-11-20T05:23:44;2.03;;;1.00;;
75614;SDS011;64199;48.578;-4.520;2022-11-20T05:26:17;3.28;;;1.20;;
75614;SDS011;64199;48.578;-4.520;2022-11-20T05:28:46;2.42;;;0.90;;
75614;SDS011;64199;48.578;-4.520;2022-11-20T05:31:16;2.30;;;1.08;;
75614;SDS011;64199;48.578;-4.520;2022-11-20T05:33:44;3.45;;;0.95;;
75614;SDS011;64199;48.578;-4.520;2022-11-20T05:36:11;2.90;;;1.10;;
75614;SDS011;64199;48.578;-4.520;2022-11-20T05:38:38;2.95;;;0.88;;
75614;SDS011;64199;48.578;-4.520;2022-11-20T05:41:06;2.22;;;0.80;;
75614;SDS011;64199;48.578;-4.520;2022-11-20T05:45:59;3.53;;;1.02;;
75614;SDS011;64199;48.578;-4.520;2022-11-20T05:48:25;3.28;;;1.00;;
75614;SDS011;64199;48.578;-4.520;2022-11-20T05:50:51;1.50;;;0.65;;
75614;SDS011;64199;48.578;-4.520;2022-11-20T05:53:17;2.38;;;0.80;;
75614;SDS011;64199;48.578;-4.520;2022-11-20T05:55:43;4.50;;;0.73;;
75614;SDS011;64199;48.578;-4.520;2022-11-20T05:58:09;2.13;;;0.80;;
75614;SDS011;64199;48.578;-4.520;2022-11-20T06:00:35;5.20;;;1.20;;
75614;SDS011;64199;48.578;-4.520;2022-11-20T06:03:01;3.60;;;1.23;;
75614;SDS011;64199;48.578;-4.520;2022-11-20T06:05:27;3.28;;;1.20;;
75614;SDS011;64199;48.578;-4.520;2022-11-20T06:07:53;1.98;;;0.98;;
75614;SDS011;64199;48.578;-4.520;2022-11-20T06:10:19;2.65;;;0.90;;
75614;SDS011;64199;48.578;-4.520;2022-11-20T06:12:44;2.60;;;1.08;;
75614;SDS011;64199;48.578;-4.520;2022-11-20T06:15:10;3.55;;;0.98;;
75614;SDS011;64199;48.578;-4.520;2022-11-20T06:17:36;5.38;;;1.30;;
75614;SDS011;64199;48.578;-4.520;2022-11-20T06:20:02;2.55;;;1.20;;
75614;SDS011;64199;48.578;-4.520;2022-11-20T06:22:28;2.78;;;1.00;;
75614;SDS011;64199;48.578;-4.520;2022-11-20T06:24:54;2.88;;;0.77;;
75614;SDS011;64199;48.578;-4.520;2022-11-20T06:27:20;1.75;;;0.85;;
75614;SDS011;64199;48.578;-4.520;2022-11-20T06:29:45;2.42;;;1.00;;
75614;SDS011;64199;48.578;-4.520;2022-11-20T06:32:11;2.67;;;1.00;;
75614;SDS011;64199;48.578;-4.520;2022-11-20T06:34:37;2.22;;;1.02;;
75614;SDS011;64199;48.578;-4.520;2022-11-20T06:37:03;3.13;;;1.05;;
75614;SDS011;64199;48.578;-4.520;2022-11-20T06:39:29;2.38;;;1.00;;
75614;SDS011;64199;48.578;-4.520;2022-11-20T06:41:54;2.05;;;1.27;;
75614;SDS011;64199;48.578;-4.520;2022-11-20T06:44:20;3.17;;;1.08;;
75614;SDS011;64199;48.578;-4.520;2022-11-20T06:46:46;4.57;;;1.17;;
75614;SDS011;64199;48.578;-4.520;2022-11-20T06:49:12;1.20;;;0.80;;
75614;SDS011;64199;48.578;-4.520;2022-11-20T06:51:38;2.60;;;1.08;;
75614;SDS011;64199;48.578;-4.520;2022-11-20T06:54:03;1.73;;;0.90;;
75614;SDS011;64199;48.578;-4.520;2022-11-20T06:56:29;2.58;;;0.88;;
75614;SDS011;64199;48.578;-4.520;2022-11-20T06:58:55;1.23;;;0.75;;
75614;SDS011;64199;48.578;-4.520;2022-11-20T07:01:21;1.80;;;0.75;;
75614;SDS011;64199;48.578;-4.520;2022-11-20T07:03:48;0.68;;;0.50;;
75614;SDS011;64199;48.578;-4.520;2022-11-20T07:06:15;2.35;;;0.90;;
75614;SDS011;64199;48.578;-4.520;2022-11-20T07:08:41;1.17;;;0.73;;
75614;SDS011;64199;48.578;-4.520;2022-11-20T07:11:07;1.60;;;0.75;;
75614;SDS011;64199;48.578;-4.520;2022-11-20T07:13:33;2.95;;;0.90;;
75614;SDS011;64199;48.578;-4.520;2022-11-20T07:16:00;1.30;;;0.70;;
75614;SDS011;64199;48.578;-4.520;2022-11-20T07:18:27;1.50;;;0.70;;
75614;SDS011;64199;48.578;-4.520;2022-11-20T07:20:53;0.85;;;0.57;;
75614;SDS011;64199;48.578;-4.520;2022-11-20T07:23:19;1.95;;;0.88;;
75614;SDS011;64199;48.578;-4.520;2022-11-20T07:25:45;2.00;;;0.75;;
75614;SDS011;64199;48.578;-4.520;2022-11-20T07:28:11;2.17;;;0.70;;
75614;SDS011;64199;48.578;-4.520;2022-11-20T07:30:37;1.75;;;0.80;;
75614;SDS011;64199;48.578;-4.520;2022-11-20T07:33:03;1.92;;;0.95;;
75614;SDS011;64199;48.578;-4.520;2022-11-20T07:35:28;2.40;;;0.68;;
75614;SDS011;64199;48.578;-4.520;2022-11-20T07:37:54;1.73;;;0.82;;
75614;SDS011;64199;48.578;-4.520;2022-11-20T07:40:20;2.28;;;1.00;;
75614;SDS011;64199;48.578;-4.520;2022-11-20T07:42:53;2.03;;;0.77;;
75614;SDS011;64199;48.578;-4.520;2022-11-20T07:45:20;1.90;;;0.82;;
75614;SDS011;64199;48.578;-4.520;2022-11-20T07:47:47;1.23;;;0.70;;
75614;SDS011;64199;48.578;-4.520;2022-11-20T07:50:13;1.27;;;0.80;;
75614;SDS011;64199;48.578;-4.520;2022-11-20T07:52:40;3.40;;;0.90;;
75614;SDS011;64199;48.578;-4.520;2022-11-20T07:55:06;1.88;;;0.73;;
75614;SDS011;64199;48.578;-4.520;2022-11-20T07:57:32;1.77;;;0.60;;
75614;SDS011;64199;48.578;-4.520;2022-11-20T07:59:58;1.75;;;0.85;;
75614;SDS011;64199;48.578;-4.520;2022-11-20T08:02:24;1.42;;;0.70;;
75614;SDS011;64199;48.578;-4.520;2022-11-20T08:04:50;1.23;;;0.70;;
75614;SDS011;64199;48.578;-4.520;2022-11-20T08:07:16;2.55;;;1.00;;
75614;SDS011;64199;48.578;-4.520;2022-11-20T08:09:41;2.90;;;0.90;;
75614;SDS011;64199;48.578;-4.520;2022-11-20T08:12:07;1.52;;;0.90;;
75614;SDS011;64199;48.578;-4.520;2022-11-20T08:14:59;1.30;;;0.70;;
75614;SDS011;64199;48.578;-4.520;2022-11-20T08:17:25;2.75;;;0.80;;
75614;SDS011;64199;48.578;-4.520;2022-11-20T08:19:51;1.65;;;0.70;;
75614;SDS011;64199;48.578;-4.520;2022-11-20T08:22:16;2.65;;;1.00;;
75614;SDS011;64199;48.578;-4.520;2022-11-20T08:24:42;1.63;;;0.60;;
75614;SDS011;64199;48.578;-4.520;2022-11-20T08:27:08;0.88;;;0.70;;
75614;SDS011;64199;48.578;-4.520;2022-11-20T08:29:34;1.63;;;0.85;;
75614;SDS011;64199;48.578;-4.520;2022-11-20T08:32:00;1.02;;;0.70;;
75614;SDS011;64199;48.578;-4.520;2022-11-20T08:34:25;1.90;;;0.80;;
75614;SDS011;64199;48.578;-4.520;2022-11-20T08:36:51;2.20;;;0.80;;
75614;SDS011;64199;48.578;-4.520;2022-11-20T08:39:17;0.90;;;0.57;;
75614;SDS011;64199;48.578;-4.520;2022-11-20T08:41:43;1.33;;;1.08;;
75614;SDS011;64199;48.578;-4.520;2022-11-20T08:44:09;2.25;;;0.70;;
75614;SDS011;64199;48.578;-4.520;2022-11-20T08:46:38;1.95;;;1.00;;
75614;SDS011;64199;48.578;-4.520;2022-11-20T08:49:07;1.40;;;0.65;;
75614;SDS011;64199;48.578;-4.520;2022-11-20T08:51:34;2.50;;;1.00;;
75614;SDS011;64199;48.578;-4.520;2022-11-20T08:54:01;1.17;;;0.80;;
75614;SDS011;64199;48.578;-4.520;2022-11-20T08:56:27;1.85;;;0.80;;
75614;SDS011;64199;48.578;-4.520;2022-11-20T08:58:52;2.20;;;1.00;;
75614;SDS011;64199;48.578;-4.520;2022-11-20T09:01:19;2.15;;;1.08;;
75614;SDS011;64199;48.578;-4.520;2022-11-20T09:03:46;2.15;;;0.80;;
75614;SDS011;64199;48.578;-4.520;2022-11-20T09:06:12;2.65;;;0.90;;
75614;SDS011;64199;48.578;-4.520;2022-11-20T09:08:39;3.35;;;1.27;;
75614;SDS011;64199;48.578;-4.520;2022-11-20T09:11:05;2.65;;;1.10;;
75614;SDS011;64199;48.578;-4.520;2022-11-20T09:13:32;2.22;;;0.82;;
75614;SDS011;64199;48.578;-4.520;2022-11-20T09:16:06;1.60;;;0.90;;
75614;SDS011;64199;48.578;-4.520;2022-11-20T09:18:33;1.13;;;0.75;;
75614;SDS011;64199;48.578;-4.520;2022-11-20T09:21:08;2.00;;;0.90;;
75614;SDS011;64199;48.578;-4.520;2022-11-20T09:23:36;1.55;;;0.80;;
75614;SDS011;64199;48.578;-4.520;2022-11-20T09:26:04;1.30;;;0.70;;
75614;SDS011;64199;48.578;-4.520;2022-11-20T09:28:31;2.25;;;0.95;;
75614;SDS011;64199;48.578;-4.520;2022-11-20T09:30:58;1.65;;;0.50;;
75614;SDS011;64199;48.578;-4.520;2022-11-20T09:33:24;3.55;;;0.82;;
75614;SDS011;64199;48.578;-4.520;2022-11-20T09:35:50;2.75;;;0.90;;
75614;SDS011;64199;48.578;-4.520;2022-11-20T09:38:16;1.27;;;0.80;;
75614;SDS011;64199;48.578;-4.520;2022-11-20T09:51:57;1.45;;;0.88;;
75614;SDS011;64199;48.578;-4.520;2022-11-20T09:54:35;2.92;;;0.90;;
75614;SDS011;64199;48.578;-4.520;2022-11-20T09:57:11;2.30;;;0.82;;
75614;SDS011;64199;48.578;-4.520;2022-11-20T10:04:57;1.95;;;1.30;;
75614;SDS011;64199;48.578;-4.520;2022-11-20T10:07:37;1.80;;;0.85;;
75614;SDS011;64199;48.578;-4.520;2022-11-20T10:13:08;1.67;;;0.82;;
75614;SDS011;64199;48.578;-4.520;2022-11-20T10:29:39;6.60;;;1.58;;
75614;SDS011;64199;48.578;-4.520;2022-11-20T10:32:11;3.95;;;1.48;;
75614;SDS011;64199;48.578;-4.520;2022-11-20T10:34:45;5.80;;;1.80;;
75614;SDS011;64199;48.578;-4.520;2022-11-20T10:37:16;5.95;;;1.70;;
75614;SDS011;64199;48.578;-4.520;2022-11-20T10:42:42;5.85;;;1.55;;
75614;SDS011;64199;48.578;-4.520;2022-11-20T10:47:55;5.03;;;1.23;;
75614;SDS011;64199;48.578;-4.520;2022-11-20T10:50:35;5.65;;;1.40;;
75614;SDS011;64199;48.578;-4.520;2022-11-20T10:55:56;4.43;;;1.40;;
75614;SDS011;64199;48.578;-4.520;2022-11-20T11:01:05;3.83;;;1.40;;
75614;SDS011;64199;48.578;-4.520;2022-11-20T11:03:38;5.95;;;1.83;;
75614;SDS011;64199;48.578;-4.520;2022-11-20T11:06:12;4.32;;;1.40;;
75614;SDS011;64199;48.578;-4.520;2022-11-20T11:08:55;7.78;;;1.80;;
75614;SDS011;64199;48.578;-4.520;2022-11-20T11:11:29;4.43;;;1.52;;
75614;SDS011;64199;48.578;-4.520;2022-11-20T11:14:06;4.90;;;1.10;;
75614;SDS011;64199;48.578;-4.520;2022-11-20T11:16:34;2.72;;;1.08;;
75614;SDS011;64199;48.578;-4.520;2022-11-20T11:19:03;6.00;;;1.55;;
75614;SDS011;64199;48.578;-4.520;2022-11-20T11:21:30;11.20;;;1.58;;
75614;SDS011;64199;48.578;-4.520;2022-11-20T11:24:00;5.93;;;1.38;;
75614;SDS011;64199;48.578;-4.520;2022-11-20T11:26:27;5.13;;;1.60;;
75614;SDS011;64199;48.578;-4.520;2022-11-20T11:28:57;3.35;;;1.38;;
75614;SDS011;64199;48.578;-4.520;2022-11-20T11:31:32;4.15;;;1.27;;
75614;SDS011;64199;48.578;-4.520;2022-11-20T11:34:06;4.18;;;1.20;;
75614;SDS011;64199;48.578;-4.520;2022-11-20T11:36:33;4.80;;;1.42;;
75614;SDS011;64199;48.578;-4.520;2022-11-20T11:39:00;4.05;;;1.33;;
75614;SDS011;64199;48.578;-4.520;2022-11-20T11:41:29;5.57;;;1.57;;
75614;SDS011;64199;48.578;-4.520;2022-11-20T11:47:05;4.85;;;1.40;;
75614;SDS011;64199;48.578;-4.520;2022-11-20T11:49:35;4.35;;;1.50;;
75614;SDS011;64199;48.578;-4.520;2022-11-20T11:54:48;2.92;;;1.27;;
75614;SDS011;64199;48.578;-4.520;2022-11-20T12:00:11;5.35;;;1.25;;
75614;SDS011;64199;48.578;-4.520;2022-11-20T12:05:17;3.08;;;1.40;;
75614;SDS011;64199;48.578;-4.520;2022-11-20T12:07:57;7.38;;;1.45;;
75614;SDS011;64199;48.578;-4.520;2022-11-20T12:15:51;2.55;;;1.15;;
75614;SDS011;64199;48.578;-4.520;2022-11-20T12:18:18;4.13;;;1.48;;
75614;SDS011;64199;48.578;-4.520;2022-11-20T12:21:05;3.78;;;1.65;;
75614;SDS011;64199;48.578;-4.520;2022-11-20T12:26:39;2.97;;;1.30;;
75614;SDS011;64199;48.578;-4.520;2022-11-20T12:43:27;3.85;;;1.40;;
75614;SDS011;64199;48.578;-4.520;2022-11-20T12:56:57;3.13;;;1.10;;
75614;SDS011;64199;48.578;-4.520;2022-11-20T13:05:36;2.58;;;0.93;;
75614;SDS011;64199;48.578;-4.520;2022-11-20T13:08:00;2.65;;;1.10;;
75614;SDS011;64199;48.578;-4.520;2022-11-20T13:10:32;2.72;;;1.00;;
75614;SDS011;64199;48.578;-4.520;2022-11-20T13:13:17;2.28;;;1.05;;
75614;SDS011;64199;48.578;-4.520;2022-11-20T13:16:07;2.92;;;1.10;;
75614;SDS011;64199;48.578;-4.520;2022-11-20T13:18:46;2.05;;;1.08;;
75614;SDS011;64199;48.578;-4.520;2022-11-20T13:21:16;3.55;;;1.20;;
75614;SDS011;64199;48.578;-4.520;2022-11-20T13:23:44;3.40;;;1.33;;
75614;SDS011;64199;48.578;-4.520;2022-11-20T13:26:20;3.63;;;1.33;;
75614;SDS011;64199;48.578;-4.520;2022-11-20T13:28:59;3.10;;;1.20;;
75614;SDS011;64199;48.578;-4.520;2022-11-20T13:31:37;1.85;;;1.00;;
75614;SDS011;64199;48.578;-4.520;2022-11-20T13:34:11;5.28;;;1.23;;
75614;SDS011;64199;48.578;-4.520;2022-11-20T13:36:51;2.08;;;1.02;;
75614;SDS011;64199;48.578;-4.520;2022-11-20T13:39:25;2.13;;;0.93;;
75614;SDS011;64199;48.578;-4.520;2022-11-20T13:41:55;5.00;;;1.52;;
75614;SDS011;64199;48.578;-4.520;2022-11-20T13:44:39;1.92;;;1.10;;
75614;SDS011;64199;48.578;-4.520;2022-11-20T13:47:24;3.22;;;1.25;;
75614;SDS011;64199;48.578;-4.520;2022-11-20T13:49:51;2.67;;;1.13;;
75614;SDS011;64199;48.578;-4.520;2022-11-20T13:58:23;1.52;;;0.73;;
75614;SDS011;64199;48.578;-4.520;2022-11-20T14:01:28;2.30;;;0.88;;
75614;SDS011;64199;48.578;-4.520;2022-11-20T14:03:47;4.40;;;1.23;;
75614;SDS011;64199;48.578;-4.520;2022-11-20T14:06:30;2.53;;;1.20;;
75614;SDS011;64199;48.578;-4.520;2022-11-20T14:08:59;3.10;;;1.05;;
75614;SDS011;64199;48.578;-4.520;2022-11-20T14:11:26;2.97;;;1.27;;
75614;SDS011;64199;48.578;-4.520;2022-11-20T14:13:55;2.60;;;0.80;;
75614;SDS011;64199;48.578;-4.520;2022-11-20T14:16:25;5.35;;;1.42;;
75614;SDS011;64199;48.578;-4.520;2022-11-20T14:18:53;2.78;;;1.00;;
75614;SDS011;64199;48.578;-4.520;2022-11-20T14:21:27;3.28;;;1.05;;
75614;SDS011;64199;48.578;-4.520;2022-11-20T14:26:30;3.17;;;0.95;;
75614;SDS011;64199;48.578;-4.520;2022-11-20T14:28:57;2.53;;;0.93;;
75614;SDS011;64199;48.578;-4.520;2022-11-20T14:31:25;2.83;;;0.90;;
75614;SDS011;64199;48.578;-4.520;2022-11-20T14:33:52;3.47;;;1.30;;
75614;SDS011;64199;48.578;-4.520;2022-11-20T14:36:20;3.28;;;1.20;;
75614;SDS011;64199;48.578;-4.520;2022-11-20T14:38:48;2.80;;;1.17;;
75614;SDS011;64199;48.578;-4.520;2022-11-20T14:41:24;3.55;;;1.02;;
75614;SDS011;64199;48.578;-4.520;2022-11-20T14:43:54;1.90;;;1.00;;
75614;SDS011;64199;48.578;-4.520;2022-11-20T14:46:22;2.17;;;0.90;;
75614;SDS011;64199;48.578;-4.520;2022-11-20T14:48:50;2.67;;;1.00;;
75614;SDS011;64199;48.578;-4.520;2022-11-20T14:51:34;3.90;;;1.35;;
75614;SDS011;64199;48.578;-4.520;2022-11-20T14:57:03;2.63;;;0.88;;
75614;SDS011;64199;48.578;-4.520;2022-11-20T14:59:30;4.05;;;1.08;;
75614;SDS011;64199;48.578;-4.520;2022-11-20T15:02:07;3.10;;;1.00;;
75614;SDS011;64199;48.578;-4.520;2022-11-20T15:04:50;4.47;;;1.10;;
75614;SDS011;64199;48.578;-4.520;2022-11-20T15:07:30;2.35;;;1.10;;
75614;SDS011;64199;48.578;-4.520;2022-11-20T15:09:59;1.73;;;0.88;;
75614;SDS011;64199;48.578;-4.520;2022-11-20T15:12:30;2.65;;;1.25;;
75614;SDS011;64199;48.578;-4.520;2022-11-20T15:14:57;2.85;;;1.00;;
75614;SDS011;64199;48.578;-4.520;2022-11-20T15:17:23;2.40;;;0.90;;
75614;SDS011;64199;48.578;-4.520;2022-11-20T15:19:50;2.95;;;0.98;;
75614;SDS011;64199;48.578;-4.520;2022-11-20T15:22:16;2.70;;;1.02;;
75614;SDS011;64199;48.578;-4.520;2022-11-20T15:24:42;1.65;;;0.85;;
75614;SDS011;64199;48.578;-4.520;2022-11-20T15:27:08;2.97;;;0.88;;
75614;SDS011;64199;48.578;-4.520;2022-11-20T15:29:35;2.00;;;0.90;;
75614;SDS011;64199;48.578;-4.520;2022-11-20T15:32:01;2.80;;;1.13;;
75614;SDS011;64199;48.578;-4.520;2022-11-20T15:34:27;3.20;;;0.93;;
75614;SDS011;64199;48.578;-4.520;2022-11-20T15:36:53;2.08;;;1.05;;
75614;SDS011;64199;48.578;-4.520;2022-11-20T15:39:19;1.77;;;0.80;;
75614;SDS011;64199;48.578;-4.520;2022-11-20T15:41:45;2.20;;;1.10;;
75614;SDS011;64199;48.578;-4.520;2022-11-20T15:44:12;3.13;;;0.80;;
75614;SDS011;64199;48.578;-4.520;2022-11-20T15:46:41;2.33;;;0.90;;
75614;SDS011;64199;48.578;-4.520;2022-11-20T15:49:13;2.50;;;0.80;;
75614;SDS011;64199;48.578;-4.520;2022-11-20T15:51:41;1.58;;;0.93;;
75614;SDS011;64199;48.578;-4.520;2022-11-20T15:54:10;2.45;;;0.68;;
75614;SDS011;64199;48.578;-4.520;2022-11-20T15:56:45;1.85;;;0.70;;
75614;SDS011;64199;48.578;-4.520;2022-11-20T15:59:11;3.08;;;1.00;;
75614;SDS011;64199;48.578;-4.520;2022-11-20T16:01:39;3.95;;;1.00;;
75614;SDS011;64199;48.578;-4.520;2022-11-20T16:04:12;2.03;;;0.90;;
75614;SDS011;64199;48.578;-4.520;2022-11-20T16:06:39;1.98;;;0.85;;
75614;SDS011;64199;48.578;-4.520;2022-11-20T16:09:06;1.27;;;0.65;;
75614;SDS011;64199;48.578;-4.520;2022-11-20T16:11:32;1.30;;;0.57;;
75614;SDS011;64199;48.578;-4.520;2022-11-20T16:14:00;1.52;;;0.80;;
75614;SDS011;64199;48.578;-4.520;2022-11-20T16:16:44;0.77;;;0.57;;
75614;SDS011;64199;48.578;-4.520;2022-11-20T16:19:11;1.25;;;0.65;;
75614;SDS011;64199;48.578;-4.520;2022-11-20T16:21:37;2.40;;;1.00;;
75614;SDS011;64199;48.578;-4.520;2022-11-20T16:24:05;1.80;;;0.80;;
75614;SDS011;64199;48.578;-4.520;2022-11-20T16:26:32;2.65;;;0.90;;
75614;SDS011;64199;48.578;-4.520;2022-11-20T16:28:59;1.75;;;0.90;;
75614;SDS011;64199;48.578;-4.520;2022-11-20T16:31:25;3.10;;;0.82;;
75614;SDS011;64199;48.578;-4.520;2022-11-20T16:33:55;2.05;;;0.90;;
75614;SDS011;64199;48.578;-4.520;2022-11-20T16:36:23;0.98;;;0.63;;
75614;SDS011;64199;48.578;-4.520;2022-11-20T16:38:57;1.83;;;1.00;;
75614;SDS011;64199;48.578;-4.520;2022-11-20T16:41:25;1.45;;;0.77;;